Beauregard Regional Airport


Codes: KDRI/DRI
Name: Beauregard Regional Airport
City: De Ridder
Country: United States
Elevation: 202 ft.
Wikipedia:

Photos at Beauregard Regional Airport


   Photos courtesy of SpottingLog. You can add your own sightings and photos by signing up for a free trial today.



No photos found.

Weather at Beauregard Regional Airport


Time (UTC)DescriptionTempratureWindCloud coverageVisibilityPressureHumidity
18-Apr-2024 00:00Broken Clouds26°C7 mph, SE83%10000m1015hPa74%
18-Apr-2024 03:00Overcast Clouds23°C7 mph, S92%10000m1015hPa85%
18-Apr-2024 06:00Overcast Clouds20°C4 mph, SE100%10000m1015hPa99%
18-Apr-2024 09:00Overcast Clouds20°C4 mph, S100%10000m1014hPa98%
18-Apr-2024 12:00Overcast Clouds21°C4 mph, E100%10000m1015hPa96%
18-Apr-2024 15:00Overcast Clouds24°C7 mph, SW100%10000m1016hPa77%
18-Apr-2024 18:00Overcast Clouds29°C7 mph, S99%10000m1016hPa53%
18-Apr-2024 21:00Overcast Clouds29°C9 mph, S94%10000m1014hPa49%
19-Apr-2024 00:00Broken Clouds25°C7 mph, SE75%10000m1014hPa67%
19-Apr-2024 03:00Overcast Clouds22°C4 mph, S86%10000m1016hPa84%
19-Apr-2024 06:00Overcast Clouds21°C4 mph, S93%10000m1016hPa94%
19-Apr-2024 09:00Overcast Clouds20°C4 mph, S100%10000m1015hPa99%
19-Apr-2024 12:00Overcast Clouds19°C2 mph, N100%0m1017hPa99%
19-Apr-2024 15:00Overcast Clouds22°C2 mph, NE99%10000m1018hPa87%
19-Apr-2024 18:00Overcast Clouds26°C2 mph, SE100%10000m1017hPa71%
19-Apr-2024 21:00Scattered Clouds31°C2 mph, SW46%10000m1015hPa49%
20-Apr-2024 00:00Broken Clouds26°C2 mph, S72%10000m1014hPa72%
20-Apr-2024 03:00Light Rain22°C4 mph, SW92%10000m1016hPa86%
20-Apr-2024 06:00Overcast Clouds20°C2 mph, S93%10000m1016hPa95%
20-Apr-2024 09:00Overcast Clouds19°C2 mph, E100%10000m1016hPa98%
20-Apr-2024 12:00Overcast Clouds20°C0 mph, NE100%10000m1017hPa98%
20-Apr-2024 15:00Overcast Clouds23°C4 mph, NE100%10000m1018hPa81%
20-Apr-2024 18:00Overcast Clouds26°C4 mph, NE99%10000m1018hPa66%
20-Apr-2024 21:00Light Rain24°C9 mph, NE97%10000m1016hPa74%
21-Apr-2024 00:00Overcast Clouds20°C9 mph, NE95%10000m1016hPa84%
21-Apr-2024 03:00Overcast Clouds16°C9 mph, NE100%10000m1016hPa91%
21-Apr-2024 06:00Light Rain16°C7 mph, NW100%2391m1018hPa98%
21-Apr-2024 09:00Moderate Rain14°C9 mph, N100%10000m1017hPa98%
21-Apr-2024 12:00Moderate Rain13°C4 mph, NE100%7466m1016hPa99%
21-Apr-2024 15:00Light Rain14°C7 mph, N100%10000m1019hPa97%
21-Apr-2024 18:00Overcast Clouds14°C9 mph, N100%10000m1019hPa90%
21-Apr-2024 21:00Overcast Clouds16°C9 mph, NE100%10000m1018hPa74%
22-Apr-2024 00:00Overcast Clouds15°C9 mph, NE100%10000m1019hPa75%
22-Apr-2024 03:00Broken Clouds13°C7 mph, NE56%10000m1020hPa81%
22-Apr-2024 06:00Broken Clouds10°C7 mph, NE53%10000m1021hPa88%
22-Apr-2024 09:00Clear Sky9°C4 mph, NE0%10000m1020hPa94%
22-Apr-2024 12:00Clear Sky8°C4 mph, NE3%10000m1021hPa95%
22-Apr-2024 15:00Few Clouds15°C7 mph, NE23%10000m1022hPa55%
22-Apr-2024 18:00Scattered Clouds21°C4 mph, NE37%10000m1019hPa43%
22-Apr-2024 21:00Clear Sky23°C2 mph, NE5%10000m1017hPa42%